sensor_id;sensor_type;location;lat;lon;timestamp;P1;durP1;ratioP1;P2;durP2;ratioP2
56493;SDS011;42392;42.648;27.652;2024-02-26T00:00:37;31.05;;;17.13;;
56493;SDS011;42392;42.648;27.652;2024-02-26T00:02:40;30.02;;;18.70;;
56493;SDS011;42392;42.648;27.652;2024-02-26T00:04:42;34.10;;;21.15;;
56493;SDS011;42392;42.648;27.652;2024-02-26T00:06:44;34.25;;;20.88;;
56493;SDS011;42392;42.648;27.652;2024-02-26T00:08:47;35.58;;;20.15;;
56493;SDS011;42392;42.648;27.652;2024-02-26T00:10:49;33.63;;;19.88;;
56493;SDS011;42392;42.648;27.652;2024-02-26T00:12:51;35.90;;;20.75;;
56493;SDS011;42392;42.648;27.652;2024-02-26T00:14:53;27.10;;;16.20;;
56493;SDS011;42392;42.648;27.652;2024-02-26T00:16:55;28.52;;;17.58;;
56493;SDS011;42392;42.648;27.652;2024-02-26T00:18:57;28.70;;;16.83;;
56493;SDS011;42392;42.648;27.652;2024-02-26T00:21:00;30.83;;;19.83;;
56493;SDS011;42392;42.648;27.652;2024-02-26T00:23:03;39.22;;;22.52;;
56493;SDS011;42392;42.648;27.652;2024-02-26T00:25:06;32.80;;;21.52;;
56493;SDS011;42392;42.648;27.652;2024-02-26T00:27:08;32.40;;;20.08;;
56493;SDS011;42392;42.648;27.652;2024-02-26T00:29:10;33.67;;;20.13;;
56493;SDS011;42392;42.648;27.652;2024-02-26T00:31:12;40.33;;;23.33;;
56493;SDS011;42392;42.648;27.652;2024-02-26T00:33:16;34.45;;;20.88;;
56493;SDS011;42392;42.648;27.652;2024-02-26T00:35:19;33.40;;;21.00;;
56493;SDS011;42392;42.648;27.652;2024-02-26T00:37:22;31.55;;;19.20;;
56493;SDS011;42392;42.648;27.652;2024-02-26T00:39:24;31.65;;;19.55;;
56493;SDS011;42392;42.648;27.652;2024-02-26T00:41:26;32.28;;;19.95;;
56493;SDS011;42392;42.648;27.652;2024-02-26T00:43:28;33.35;;;19.85;;
56493;SDS011;42392;42.648;27.652;2024-02-26T00:45:30;35.15;;;20.08;;
56493;SDS011;42392;42.648;27.652;2024-02-26T00:47:33;35.60;;;20.27;;
56493;SDS011;42392;42.648;27.652;2024-02-26T00:49:35;40.00;;;25.80;;
56493;SDS011;42392;42.648;27.652;2024-02-26T00:51:38;37.05;;;23.23;;
56493;SDS011;42392;42.648;27.652;2024-02-26T00:53:40;31.70;;;21.05;;
56493;SDS011;42392;42.648;27.652;2024-02-26T00:55:42;32.72;;;20.08;;
56493;SDS011;42392;42.648;27.652;2024-02-26T00:57:44;32.50;;;21.08;;
56493;SDS011;42392;42.648;27.652;2024-02-26T00:59:47;29.75;;;18.30;;
56493;SDS011;42392;42.648;27.652;2024-02-26T01:01:49;26.75;;;17.17;;
56493;SDS011;42392;42.648;27.652;2024-02-26T01:03:51;28.95;;;17.83;;
56493;SDS011;42392;42.648;27.652;2024-02-26T01:05:54;32.55;;;18.08;;
56493;SDS011;42392;42.648;27.652;2024-02-26T01:07:59;33.28;;;18.58;;
56493;SDS011;42392;42.648;27.652;2024-02-26T01:10:02;30.27;;;19.17;;
56493;SDS011;42392;42.648;27.652;2024-02-26T01:12:04;30.70;;;19.20;;
56493;SDS011;42392;42.648;27.652;2024-02-26T01:14:07;34.15;;;19.45;;
56493;SDS011;42392;42.648;27.652;2024-02-26T01:16:09;33.75;;;19.17;;
56493;SDS011;42392;42.648;27.652;2024-02-26T01:18:12;34.13;;;19.92;;
56493;SDS011;42392;42.648;27.652;2024-02-26T01:20:14;34.13;;;20.55;;
56493;SDS011;42392;42.648;27.652;2024-02-26T01:22:17;43.97;;;24.83;;
56493;SDS011;42392;42.648;27.652;2024-02-26T01:24:19;40.85;;;23.35;;
56493;SDS011;42392;42.648;27.652;2024-02-26T01:26:21;47.80;;;27.23;;
56493;SDS011;42392;42.648;27.652;2024-02-26T01:28:23;58.72;;;32.83;;
56493;SDS011;42392;42.648;27.652;2024-02-26T01:30:25;49.25;;;28.15;;
56493;SDS011;42392;42.648;27.652;2024-02-26T01:32:28;40.78;;;24.67;;
56493;SDS011;42392;42.648;27.652;2024-02-26T01:34:30;35.80;;;22.25;;
56493;SDS011;42392;42.648;27.652;2024-02-26T01:36:32;39.45;;;21.52;;
56493;SDS011;42392;42.648;27.652;2024-02-26T01:38:35;32.58;;;18.92;;
56493;SDS011;42392;42.648;27.652;2024-02-26T01:40:37;28.80;;;18.30;;
56493;SDS011;42392;42.648;27.652;2024-02-26T01:42:39;28.45;;;17.00;;
56493;SDS011;42392;42.648;27.652;2024-02-26T01:44:42;26.83;;;16.25;;
56493;SDS011;42392;42.648;27.652;2024-02-26T01:46:45;27.52;;;18.17;;
56493;SDS011;42392;42.648;27.652;2024-02-26T01:48:47;32.20;;;17.70;;
56493;SDS011;42392;42.648;27.652;2024-02-26T01:50:51;27.13;;;17.23;;
56493;SDS011;42392;42.648;27.652;2024-02-26T01:52:53;41.15;;;27.65;;
56493;SDS011;42392;42.648;27.652;2024-02-26T01:54:56;28.85;;;16.60;;
56493;SDS011;42392;42.648;27.652;2024-02-26T01:56:58;32.95;;;17.58;;
56493;SDS011;42392;42.648;27.652;2024-02-26T01:59:00;26.67;;;18.45;;
56493;SDS011;42392;42.648;27.652;2024-02-26T02:01:03;37.45;;;27.10;;
56493;SDS011;42392;42.648;27.652;2024-02-26T02:03:05;29.90;;;17.55;;
56493;SDS011;42392;42.648;27.652;2024-02-26T02:05:08;28.23;;;16.52;;
56493;SDS011;42392;42.648;27.652;2024-02-26T02:07:10;27.48;;;17.45;;
56493;SDS011;42392;42.648;27.652;2024-02-26T02:09:13;27.63;;;17.40;;
56493;SDS011;42392;42.648;27.652;2024-02-26T02:11:15;27.25;;;17.73;;
56493;SDS011;42392;42.648;27.652;2024-02-26T02:13:18;29.00;;;16.65;;
56493;SDS011;42392;42.648;27.652;2024-02-26T02:15:20;30.92;;;18.85;;
56493;SDS011;42392;42.648;27.652;2024-02-26T02:17:23;31.80;;;19.38;;
56493;SDS011;42392;42.648;27.652;2024-02-26T02:19:25;34.25;;;21.13;;
56493;SDS011;42392;42.648;27.652;2024-02-26T02:21:27;29.27;;;18.27;;
56493;SDS011;42392;42.648;27.652;2024-02-26T02:23:29;30.98;;;18.10;;
56493;SDS011;42392;42.648;27.652;2024-02-26T02:25:31;30.02;;;17.73;;
56493;SDS011;42392;42.648;27.652;2024-02-26T02:27:34;30.98;;;18.50;;
56493;SDS011;42392;42.648;27.652;2024-02-26T02:29:36;25.55;;;16.75;;
56493;SDS011;42392;42.648;27.652;2024-02-26T02:31:38;28.33;;;17.58;;
56493;SDS011;42392;42.648;27.652;2024-02-26T02:33:40;26.77;;;17.15;;
56493;SDS011;42392;42.648;27.652;2024-02-26T02:35:43;26.25;;;16.25;;
56493;SDS011;42392;42.648;27.652;2024-02-26T02:37:45;30.67;;;18.27;;
56493;SDS011;42392;42.648;27.652;2024-02-26T02:39:47;28.48;;;17.13;;
56493;SDS011;42392;42.648;27.652;2024-02-26T02:41:49;28.95;;;16.65;;
56493;SDS011;42392;42.648;27.652;2024-02-26T02:43:51;26.15;;;16.67;;
56493;SDS011;42392;42.648;27.652;2024-02-26T02:45:53;26.75;;;16.67;;
56493;SDS011;42392;42.648;27.652;2024-02-26T02:47:55;27.13;;;17.33;;
56493;SDS011;42392;42.648;27.652;2024-02-26T02:49:58;31.48;;;19.98;;
56493;SDS011;42392;42.648;27.652;2024-02-26T02:52:00;25.40;;;16.63;;
56493;SDS011;42392;42.648;27.652;2024-02-26T02:54:02;30.15;;;16.77;;
56493;SDS011;42392;42.648;27.652;2024-02-26T02:56:04;26.27;;;16.38;;
56493;SDS011;42392;42.648;27.652;2024-02-26T02:58:07;27.95;;;16.70;;
56493;SDS011;42392;42.648;27.652;2024-02-26T03:00:09;28.10;;;16.52;;
56493;SDS011;42392;42.648;27.652;2024-02-26T03:02:12;31.15;;;18.45;;
56493;SDS011;42392;42.648;27.652;2024-02-26T03:04:14;32.78;;;18.02;;
56493;SDS011;42392;42.648;27.652;2024-02-26T03:06:16;31.55;;;17.88;;
56493;SDS011;42392;42.648;27.652;2024-02-26T03:08:19;27.45;;;17.45;;
56493;SDS011;42392;42.648;27.652;2024-02-26T03:10:21;27.92;;;16.63;;
56493;SDS011;42392;42.648;27.652;2024-02-26T03:12:23;27.40;;;16.85;;
56493;SDS011;42392;42.648;27.652;2024-02-26T03:14:25;29.17;;;16.55;;
56493;SDS011;42392;42.648;27.652;2024-02-26T03:16:27;27.92;;;16.95;;
56493;SDS011;42392;42.648;27.652;2024-02-26T03:18:30;28.60;;;16.27;;
56493;SDS011;42392;42.648;27.652;2024-02-26T03:20:32;28.38;;;15.57;;
56493;SDS011;42392;42.648;27.652;2024-02-26T03:22:35;25.23;;;14.77;;
56493;SDS011;42392;42.648;27.652;2024-02-26T03:24:37;29.55;;;16.45;;
56493;SDS011;42392;42.648;27.652;2024-02-26T03:26:39;26.35;;;14.40;;
56493;SDS011;42392;42.648;27.652;2024-02-26T03:28:41;24.45;;;15.52;;
56493;SDS011;42392;42.648;27.652;2024-02-26T03:30:43;27.17;;;15.95;;
56493;SDS011;42392;42.648;27.652;2024-02-26T03:32:45;26.63;;;14.95;;
56493;SDS011;42392;42.648;27.652;2024-02-26T03:34:49;25.58;;;15.63;;
56493;SDS011;42392;42.648;27.652;2024-02-26T03:36:55;33.78;;;22.30;;
56493;SDS011;42392;42.648;27.652;2024-02-26T03:38:58;36.28;;;24.20;;
56493;SDS011;42392;42.648;27.652;2024-02-26T03:41:00;31.85;;;20.30;;
56493;SDS011;42392;42.648;27.652;2024-02-26T03:43:02;27.55;;;16.77;;
56493;SDS011;42392;42.648;27.652;2024-02-26T03:45:06;25.45;;;15.48;;
56493;SDS011;42392;42.648;27.652;2024-02-26T03:47:08;26.52;;;14.43;;
56493;SDS011;42392;42.648;27.652;2024-02-26T03:49:11;25.48;;;15.05;;
56493;SDS011;42392;42.648;27.652;2024-02-26T03:51:13;24.70;;;15.38;;
56493;SDS011;42392;42.648;27.652;2024-02-26T03:53:16;25.92;;;15.00;;
56493;SDS011;42392;42.648;27.652;2024-02-26T03:55:18;27.00;;;15.00;;
56493;SDS011;42392;42.648;27.652;2024-02-26T03:57:26;26.13;;;14.90;;
56493;SDS011;42392;42.648;27.652;2024-02-26T03:59:28;26.52;;;15.57;;
56493;SDS011;42392;42.648;27.652;2024-02-26T04:01:30;26.58;;;15.05;;
56493;SDS011;42392;42.648;27.652;2024-02-26T04:03:32;24.98;;;13.93;;
56493;SDS011;42392;42.648;27.652;2024-02-26T04:05:34;28.65;;;15.43;;
56493;SDS011;42392;42.648;27.652;2024-02-26T04:07:37;26.13;;;14.48;;
56493;SDS011;42392;42.648;27.652;2024-02-26T04:09:39;26.92;;;15.45;;
56493;SDS011;42392;42.648;27.652;2024-02-26T04:11:41;43.38;;;28.77;;
56493;SDS011;42392;42.648;27.652;2024-02-26T04:13:44;26.52;;;15.38;;
56493;SDS011;42392;42.648;27.652;2024-02-26T04:15:48;24.60;;;13.88;;
56493;SDS011;42392;42.648;27.652;2024-02-26T04:17:50;29.05;;;15.63;;
56493;SDS011;42392;42.648;27.652;2024-02-26T04:19:52;29.17;;;16.02;;
56493;SDS011;42392;42.648;27.652;2024-02-26T04:21:54;35.50;;;19.10;;
56493;SDS011;42392;42.648;27.652;2024-02-26T04:23:56;25.15;;;16.70;;
56493;SDS011;42392;42.648;27.652;2024-02-26T04:28:05;27.55;;;14.43;;
56493;SDS011;42392;42.648;27.652;2024-02-26T04:30:07;25.02;;;14.57;;
56493;SDS011;42392;42.648;27.652;2024-02-26T04:32:10;23.30;;;14.13;;
56493;SDS011;42392;42.648;27.652;2024-02-26T04:34:12;27.85;;;13.82;;
56493;SDS011;42392;42.648;27.652;2024-02-26T04:36:15;25.08;;;14.43;;
56493;SDS011;42392;42.648;27.652;2024-02-26T04:38:18;22.77;;;13.23;;
56493;SDS011;42392;42.648;27.652;2024-02-26T04:40:20;23.15;;;14.15;;
56493;SDS011;42392;42.648;27.652;2024-02-26T04:42:22;21.98;;;13.07;;
56493;SDS011;42392;42.648;27.652;2024-02-26T04:44:24;21.08;;;13.23;;
56493;SDS011;42392;42.648;27.652;2024-02-26T04:46:26;26.73;;;15.50;;
56493;SDS011;42392;42.648;27.652;2024-02-26T04:48:29;28.98;;;17.75;;
56493;SDS011;42392;42.648;27.652;2024-02-26T04:50:31;31.00;;;18.10;;
56493;SDS011;42392;42.648;27.652;2024-02-26T04:52:33;27.55;;;15.13;;
56493;SDS011;42392;42.648;27.652;2024-02-26T04:54:35;27.05;;;15.07;;
56493;SDS011;42392;42.648;27.652;2024-02-26T04:56:37;41.70;;;26.80;;
56493;SDS011;42392;42.648;27.652;2024-02-26T04:58:39;32.67;;;20.33;;
56493;SDS011;42392;42.648;27.652;2024-02-26T05:00:41;25.73;;;14.95;;
56493;SDS011;42392;42.648;27.652;2024-02-26T05:02:44;24.50;;;13.70;;
56493;SDS011;42392;42.648;27.652;2024-02-26T05:04:46;25.20;;;14.10;;
56493;SDS011;42392;42.648;27.652;2024-02-26T05:06:48;27.42;;;15.68;;
56493;SDS011;42392;42.648;27.652;2024-02-26T05:08:50;26.90;;;15.02;;
56493;SDS011;42392;42.648;27.652;2024-02-26T05:10:52;26.35;;;15.38;;
56493;SDS011;42392;42.648;27.652;2024-02-26T05:12:55;24.45;;;14.05;;
56493;SDS011;42392;42.648;27.652;2024-02-26T05:14:57;28.35;;;14.85;;
56493;SDS011;42392;42.648;27.652;2024-02-26T05:16:59;26.48;;;14.32;;
56493;SDS011;42392;42.648;27.652;2024-02-26T05:19:01;25.48;;;14.77;;
56493;SDS011;42392;42.648;27.652;2024-02-26T05:21:04;54.53;;;23.63;;
56493;SDS011;42392;42.648;27.652;2024-02-26T05:23:06;114.80;;;39.92;;
56493;SDS011;42392;42.648;27.652;2024-02-26T05:25:08;44.00;;;24.88;;
56493;SDS011;42392;42.648;27.652;2024-02-26T05:27:11;33.88;;;21.25;;
56493;SDS011;42392;42.648;27.652;2024-02-26T05:29:13;53.72;;;29.05;;
56493;SDS011;42392;42.648;27.652;2024-02-26T05:31:16;34.25;;;21.27;;
56493;SDS011;42392;42.648;27.652;2024-02-26T05:33:19;33.83;;;21.00;;
56493;SDS011;42392;42.648;27.652;2024-02-26T05:35:21;28.98;;;16.58;;
56493;SDS011;42392;42.648;27.652;2024-02-26T05:37:24;27.77;;;16.00;;
56493;SDS011;42392;42.648;27.652;2024-02-26T05:39:26;28.17;;;16.25;;
56493;SDS011;42392;42.648;27.652;2024-02-26T05:41:28;28.05;;;15.55;;
56493;SDS011;42392;42.648;27.652;2024-02-26T05:43:30;27.35;;;14.48;;
56493;SDS011;42392;42.648;27.652;2024-02-26T05:45:32;41.22;;;16.25;;
56493;SDS011;42392;42.648;27.652;2024-02-26T05:47:35;40.00;;;16.48;;
56493;SDS011;42392;42.648;27.652;2024-02-26T05:49:37;41.67;;;17.13;;
56493;SDS011;42392;42.648;27.652;2024-02-26T05:51:39;31.05;;;16.17;;
56493;SDS011;42392;42.648;27.652;2024-02-26T05:53:42;26.65;;;14.60;;
56493;SDS011;42392;42.648;27.652;2024-02-26T05:55:44;23.90;;;13.43;;
56493;SDS011;42392;42.648;27.652;2024-02-26T05:57:47;27.88;;;17.60;;
56493;SDS011;42392;42.648;27.652;2024-02-26T05:59:51;24.05;;;13.30;;
56493;SDS011;42392;42.648;27.652;2024-02-26T06:01:52;25.58;;;14.68;;
56493;SDS011;42392;42.648;27.652;2024-02-26T06:03:55;22.02;;;15.40;;
56493;SDS011;42392;42.648;27.652;2024-02-26T06:05:57;37.30;;;25.65;;
56493;SDS011;42392;42.648;27.652;2024-02-26T06:07:59;33.58;;;22.33;;
56493;SDS011;42392;42.648;27.652;2024-02-26T06:10:02;28.65;;;15.73;;
56493;SDS011;42392;42.648;27.652;2024-02-26T06:12:06;24.38;;;13.40;;
56493;SDS011;42392;42.648;27.652;2024-02-26T06:14:10;22.27;;;12.73;;
56493;SDS011;42392;42.648;27.652;2024-02-26T06:16:14;22.98;;;12.25;;
56493;SDS011;42392;42.648;27.652;2024-02-26T06:18:16;25.65;;;13.40;;
56493;SDS011;42392;42.648;27.652;2024-02-26T06:20:18;22.35;;;13.00;;
56493;SDS011;42392;42.648;27.652;2024-02-26T06:22:21;24.25;;;13.77;;
56493;SDS011;42392;42.648;27.652;2024-02-26T06:24:23;31.50;;;17.88;;
56493;SDS011;42392;42.648;27.652;2024-02-26T06:26:25;20.15;;;13.20;;
56493;SDS011;42392;42.648;27.652;2024-02-26T06:28:30;28.08;;;14.15;;
56493;SDS011;42392;42.648;27.652;2024-02-26T06:30:34;22.55;;;12.10;;
56493;SDS011;42392;42.648;27.652;2024-02-26T06:32:39;24.80;;;13.38;;
56493;SDS011;42392;42.648;27.652;2024-02-26T06:34:42;23.63;;;12.52;;
56493;SDS011;42392;42.648;27.652;2024-02-26T06:36:45;28.90;;;13.85;;
56493;SDS011;42392;42.648;27.652;2024-02-26T06:38:47;26.55;;;13.50;;
56493;SDS011;42392;42.648;27.652;2024-02-26T06:40:51;25.00;;;12.90;;
56493;SDS011;42392;42.648;27.652;2024-02-26T06:42:54;25.20;;;12.88;;
56493;SDS011;42392;42.648;27.652;2024-02-26T06:44:58;24.50;;;11.70;;
56493;SDS011;42392;42.648;27.652;2024-02-26T06:47:00;25.60;;;11.23;;
56493;SDS011;42392;42.648;27.652;2024-02-26T06:49:03;23.38;;;14.63;;
56493;SDS011;42392;42.648;27.652;2024-02-26T06:51:05;32.28;;;23.40;;
56493;SDS011;42392;42.648;27.652;2024-02-26T06:53:07;23.45;;;14.15;;
56493;SDS011;42392;42.648;27.652;2024-02-26T06:57:15;26.75;;;11.55;;
56493;SDS011;42392;42.648;27.652;2024-02-26T06:59:18;24.23;;;11.63;;
56493;SDS011;42392;42.648;27.652;2024-02-26T07:01:21;25.05;;;12.70;;
56493;SDS011;42392;42.648;27.652;2024-02-26T07:03:23;26.45;;;12.98;;
56493;SDS011;42392;42.648;27.652;2024-02-26T07:05:27;25.27;;;12.10;;
56493;SDS011;42392;42.648;27.652;2024-02-26T07:07:33;20.77;;;10.70;;
56493;SDS011;42392;42.648;27.652;2024-02-26T07:09:36;19.95;;;11.18;;
56493;SDS011;42392;42.648;27.652;2024-02-26T07:11:38;26.02;;;11.57;;
56493;SDS011;42392;42.648;27.652;2024-02-26T07:13:43;25.30;;;10.60;;
56493;SDS011;42392;42.648;27.652;2024-02-26T07:15:45;23.10;;;11.52;;
56493;SDS011;42392;42.648;27.652;2024-02-26T07:17:48;21.13;;;9.00;;
56493;SDS011;42392;42.648;27.652;2024-02-26T07:19:51;22.10;;;10.10;;
56493;SDS011;42392;42.648;27.652;2024-02-26T07:21:53;22.40;;;9.93;;
56493;SDS011;42392;42.648;27.652;2024-02-26T07:23:55;23.15;;;12.00;;
56493;SDS011;42392;42.648;27.652;2024-02-26T07:25:57;19.40;;;9.82;;
56493;SDS011;42392;42.648;27.652;2024-02-26T07:27:59;29.40;;;12.27;;
56493;SDS011;42392;42.648;27.652;2024-02-26T07:30:01;27.05;;;11.32;;
56493;SDS011;42392;42.648;27.652;2024-02-26T07:32:04;23.60;;;9.05;;
56493;SDS011;42392;42.648;27.652;2024-02-26T07:34:07;20.73;;;9.35;;
56493;SDS011;42392;42.648;27.652;2024-02-26T07:36:09;18.65;;;8.45;;
56493;SDS011;42392;42.648;27.652;2024-02-26T07:38:11;21.60;;;8.73;;
56493;SDS011;42392;42.648;27.652;2024-02-26T07:40:32;21.58;;;9.32;;
56493;SDS011;42392;42.648;27.652;2024-02-26T07:42:34;17.52;;;7.80;;
56493;SDS011;42392;42.648;27.652;2024-02-26T07:44:36;21.65;;;8.75;;
56493;SDS011;42392;42.648;27.652;2024-02-26T07:46:38;26.33;;;9.32;;
56493;SDS011;42392;42.648;27.652;2024-02-26T07:48:40;21.23;;;8.23;;
56493;SDS011;42392;42.648;27.652;2024-02-26T07:50:43;19.90;;;7.72;;
56493;SDS011;42392;42.648;27.652;2024-02-26T07:52:45;16.98;;;5.97;;
56493;SDS011;42392;42.648;27.652;2024-02-26T07:54:47;22.38;;;7.75;;
56493;SDS011;42392;42.648;27.652;2024-02-26T07:56:50;21.38;;;6.82;;
56493;SDS011;42392;42.648;27.652;2024-02-26T07:58:52;18.63;;;6.65;;
56493;SDS011;42392;42.648;27.652;2024-02-26T08:00:54;17.60;;;6.35;;
56493;SDS011;42392;42.648;27.652;2024-02-26T08:02:56;20.48;;;7.40;;
56493;SDS011;42392;42.648;27.652;2024-02-26T08:04:58;22.63;;;7.28;;
56493;SDS011;42392;42.648;27.652;2024-02-26T08:07:01;19.30;;;6.45;;
56493;SDS011;42392;42.648;27.652;2024-02-26T08:09:04;15.38;;;5.75;;
56493;SDS011;42392;42.648;27.652;2024-02-26T08:11:07;21.88;;;7.50;;
56493;SDS011;42392;42.648;27.652;2024-02-26T08:13:10;17.38;;;6.20;;
56493;SDS011;42392;42.648;27.652;2024-02-26T08:15:12;21.10;;;6.18;;
56493;SDS011;42392;42.648;27.652;2024-02-26T08:17:14;18.90;;;5.90;;
56493;SDS011;42392;42.648;27.652;2024-02-26T08:19:16;27.90;;;6.68;;
56493;SDS011;42392;42.648;27.652;2024-02-26T08:21:19;22.95;;;6.60;;
56493;SDS011;42392;42.648;27.652;2024-02-26T08:23:21;17.40;;;6.32;;
56493;SDS011;42392;42.648;27.652;2024-02-26T08:25:24;20.90;;;7.50;;
56493;SDS011;42392;42.648;27.652;2024-02-26T08:27:27;20.20;;;6.80;;
56493;SDS011;42392;42.648;27.652;2024-02-26T08:29:29;22.23;;;7.05;;
56493;SDS011;42392;42.648;27.652;2024-02-26T08:31:31;16.55;;;6.13;;
56493;SDS011;42392;42.648;27.652;2024-02-26T08:33:33;18.90;;;5.95;;
56493;SDS011;42392;42.648;27.652;2024-02-26T08:35:37;20.70;;;6.55;;
56493;SDS011;42392;42.648;27.652;2024-02-26T08:37:39;16.67;;;6.60;;
56493;SDS011;42392;42.648;27.652;2024-02-26T08:39:41;17.65;;;6.43;;
56493;SDS011;42392;42.648;27.652;2024-02-26T08:41:43;18.85;;;5.60;;
56493;SDS011;42392;42.648;27.652;2024-02-26T08:43:46;13.45;;;4.97;;
56493;SDS011;42392;42.648;27.652;2024-02-26T08:45:48;18.30;;;5.90;;
56493;SDS011;42392;42.648;27.652;2024-02-26T08:47:50;17.25;;;6.07;;
56493;SDS011;42392;42.648;27.652;2024-02-26T08:49:53;19.92;;;5.75;;
56493;SDS011;42392;42.648;27.652;2024-02-26T08:51:55;17.30;;;6.13;;
56493;SDS011;42392;42.648;27.652;2024-02-26T08:53:57;18.90;;;5.50;;
56493;SDS011;42392;42.648;27.652;2024-02-26T08:55:59;22.02;;;6.32;;
56493;SDS011;42392;42.648;27.652;2024-02-26T08:58:01;14.77;;;4.88;;
56493;SDS011;42392;42.648;27.652;2024-02-26T09:00:04;15.95;;;4.88;;
56493;SDS011;42392;42.648;27.652;2024-02-26T09:02:08;17.88;;;5.20;;
56493;SDS011;42392;42.648;27.652;2024-02-26T09:04:10;16.35;;;6.20;;
56493;SDS011;42392;42.648;27.652;2024-02-26T09:06:14;15.75;;;5.03;;
56493;SDS011;42392;42.648;27.652;2024-02-26T09:08:17;18.98;;;5.25;;
56493;SDS011;42392;42.648;27.652;2024-02-26T09:10:19;20.10;;;6.88;;
56493;SDS011;42392;42.648;27.652;2024-02-26T09:12:21;19.15;;;6.88;;
56493;SDS011;42392;42.648;27.652;2024-02-26T09:14:23;14.88;;;5.72;;
56493;SDS011;42392;42.648;27.652;2024-02-26T09:16:28;13.95;;;5.57;;
56493;SDS011;42392;42.648;27.652;2024-02-26T09:18:31;13.02;;;5.05;;
56493;SDS011;42392;42.648;27.652;2024-02-26T09:20:33;16.50;;;4.88;;
56493;SDS011;42392;42.648;27.652;2024-02-26T09:22:36;11.45;;;4.32;;
56493;SDS011;42392;42.648;27.652;2024-02-26T09:24:39;16.25;;;5.60;;
56493;SDS011;42392;42.648;27.652;2024-02-26T09:26:41;15.93;;;5.63;;
56493;SDS011;42392;42.648;27.652;2024-02-26T09:28:44;15.30;;;5.55;;
56493;SDS011;42392;42.648;27.652;2024-02-26T09:30:46;22.58;;;6.57;;
56493;SDS011;42392;42.648;27.652;2024-02-26T09:32:50;17.98;;;5.47;;
56493;SDS011;42392;42.648;27.652;2024-02-26T09:34:52;12.07;;;4.40;;
56493;SDS011;42392;42.648;27.652;2024-02-26T09:36:55;18.98;;;6.07;;
56493;SDS011;42392;42.648;27.652;2024-02-26T09:39:08;19.58;;;6.15;;
56493;SDS011;42392;42.648;27.652;2024-02-26T09:41:16;14.00;;;5.55;;
56493;SDS011;42392;42.648;27.652;2024-02-26T09:43:21;15.98;;;5.53;;
56493;SDS011;42392;42.648;27.652;2024-02-26T09:45:27;17.17;;;7.07;;
56493;SDS011;42392;42.648;27.652;2024-02-26T09:47:31;18.23;;;7.47;;
56493;SDS011;42392;42.648;27.652;2024-02-26T09:49:34;15.75;;;7.07;;
56493;SDS011;42392;42.648;27.652;2024-02-26T09:51:38;17.50;;;6.90;;
56493;SDS011;42392;42.648;27.652;2024-02-26T09:53:40;18.08;;;6.68;;
56493;SDS011;42392;42.648;27.652;2024-02-26T09:55:50;12.55;;;5.45;;
56493;SDS011;42392;42.648;27.652;2024-02-26T09:57:52;20.23;;;5.40;;
56493;SDS011;42392;42.648;27.652;2024-02-26T09:59:55;15.75;;;5.50;;
56493;SDS011;42392;42.648;27.652;2024-02-26T10:02:03;19.45;;;5.05;;
56493;SDS011;42392;42.648;27.652;2024-02-26T10:04:05;9.85;;;3.90;;
56493;SDS011;42392;42.648;27.652;2024-02-26T10:06:08;15.75;;;5.47;;
56493;SDS011;42392;42.648;27.652;2024-02-26T10:08:12;13.80;;;5.53;;
56493;SDS011;42392;42.648;27.652;2024-02-26T10:10:20;15.10;;;5.05;;
56493;SDS011;42392;42.648;27.652;2024-02-26T10:12:22;14.77;;;5.13;;
56493;SDS011;42392;42.648;27.652;2024-02-26T10:14:25;16.52;;;5.40;;
56493;SDS011;42392;42.648;27.652;2024-02-26T10:16:27;15.15;;;5.70;;
56493;SDS011;42392;42.648;27.652;2024-02-26T10:21:03;18.38;;;7.82;;
56493;SDS011;42392;42.648;27.652;2024-02-26T10:23:05;19.83;;;7.38;;
56493;SDS011;42392;42.648;27.652;2024-02-26T10:25:11;24.30;;;8.85;;
56493;SDS011;42392;42.648;27.652;2024-02-26T10:27:15;16.40;;;6.18;;
56493;SDS011;42392;42.648;27.652;2024-02-26T10:29:18;21.58;;;8.25;;
56493;SDS011;42392;42.648;27.652;2024-02-26T10:31:27;16.25;;;5.57;;
56493;SDS011;42392;42.648;27.652;2024-02-26T10:33:29;20.25;;;7.80;;
56493;SDS011;42392;42.648;27.652;2024-02-26T10:35:39;13.38;;;5.22;;
56493;SDS011;42392;42.648;27.652;2024-02-26T10:38:04;13.85;;;4.90;;
56493;SDS011;42392;42.648;27.652;2024-02-26T10:40:13;13.63;;;5.57;;
56493;SDS011;42392;42.648;27.652;2024-02-26T10:42:25;15.63;;;5.65;;
56493;SDS011;42392;42.648;27.652;2024-02-26T10:44:27;16.58;;;6.25;;
56493;SDS011;42392;42.648;27.652;2024-02-26T10:46:29;14.07;;;4.15;;
56493;SDS011;42392;42.648;27.652;2024-02-26T10:48:31;21.88;;;5.03;;
56493;SDS011;42392;42.648;27.652;2024-02-26T10:50:34;26.95;;;10.68;;
56493;SDS011;42392;42.648;27.652;2024-02-26T10:52:36;15.98;;;5.32;;
56493;SDS011;42392;42.648;27.652;2024-02-26T10:54:39;20.98;;;5.28;;
56493;SDS011;42392;42.648;27.652;2024-02-26T10:56:46;11.77;;;4.20;;
56493;SDS011;42392;42.648;27.652;2024-02-26T10:58:50;14.35;;;4.78;;
56493;SDS011;42392;42.648;27.652;2024-02-26T11:00:53;13.18;;;4.80;;
56493;SDS011;42392;42.648;27.652;2024-02-26T11:02:58;13.32;;;3.97;;
56493;SDS011;42392;42.648;27.652;2024-02-26T11:05:05;10.80;;;3.65;;
56493;SDS011;42392;42.648;27.652;2024-02-26T11:07:09;12.48;;;4.57;;
56493;SDS011;42392;42.648;27.652;2024-02-26T11:09:12;11.63;;;4.40;;
56493;SDS011;42392;42.648;27.652;2024-02-26T11:11:20;10.35;;;3.40;;
56493;SDS011;42392;42.648;27.652;2024-02-26T11:13:23;12.45;;;4.40;;
56493;SDS011;42392;42.648;27.652;2024-02-26T11:15:33;10.93;;;4.32;;
56493;SDS011;42392;42.648;27.652;2024-02-26T11:17:35;11.10;;;4.28;;
56493;SDS011;42392;42.648;27.652;2024-02-26T11:19:40;15.68;;;5.32;;
56493;SDS011;42392;42.648;27.652;2024-02-26T11:21:43;16.20;;;3.97;;
56493;SDS011;42392;42.648;27.652;2024-02-26T11:23:46;13.48;;;6.00;;
56493;SDS011;42392;42.648;27.652;2024-02-26T11:25:48;17.98;;;5.85;;
56493;SDS011;42392;42.648;27.652;2024-02-26T11:27:54;15.85;;;5.47;;
56493;SDS011;42392;42.648;27.652;2024-02-26T11:30:00;11.18;;;4.65;;
56493;SDS011;42392;42.648;27.652;2024-02-26T11:32:04;15.77;;;5.60;;
56493;SDS011;42392;42.648;27.652;2024-02-26T11:34:07;16.42;;;5.28;;
56493;SDS011;42392;42.648;27.652;2024-02-26T11:36:11;9.73;;;3.72;;
56493;SDS011;42392;42.648;27.652;2024-02-26T11:38:17;11.55;;;5.05;;
56493;SDS011;42392;42.648;27.652;2024-02-26T11:40:25;15.20;;;5.50;;
56493;SDS011;42392;42.648;27.652;2024-02-26T11:42:28;16.02;;;4.72;;
56493;SDS011;42392;42.648;27.652;2024-02-26T11:44:34;15.95;;;5.38;;
56493;SDS011;42392;42.648;27.652;2024-02-26T11:46:40;18.15;;;5.82;;
56493;SDS011;42392;42.648;27.652;2024-02-26T11:48:44;24.02;;;7.40;;
56493;SDS011;42392;42.648;27.652;2024-02-26T11:50:48;16.00;;;6.10;;
56493;SDS011;42392;42.648;27.652;2024-02-26T11:55:32;19.00;;;6.00;;
56493;SDS011;42392;42.648;27.652;2024-02-26T11:57:39;20.05;;;6.47;;
56493;SDS011;42392;42.648;27.652;2024-02-26T11:59:44;13.60;;;5.30;;
56493;SDS011;42392;42.648;27.652;2024-02-26T12:01:47;16.60;;;6.10;;